Time;durP1;ratioP1;P1;durP2;ratioP2;P2;SDS_P1;SDS_P2;PMS_P1;PMS_P2;Temp;Humidity;BMP_temperature;BMP_pressure;BME280_temperature;BME280_humidity;BME280_pressure;Samples;Min_cycle;Max_cycle;Signal;HPM_P1;HPM_P2
2023/08/18 00:02:07;;;;;;;1.92;1.38;;;;;;;16.58;72.79;101536.47;5024816;28;20029;-61
2023/08/18 00:04:32;;;;;;;2.13;1.60;;;;;;;16.58;72.72;101532.06;5024625;28;20022;-60
2023/08/18 00:06:58;;;;;;;3.13;2.42;;;;;;;16.55;72.73;101532.13;5024981;28;20054;-59
2023/08/18 00:09:24;;;;;;;3.92;2.25;;;;;;;16.55;72.76;101531.28;5024685;28;20104;-60
2023/08/18 00:11:50;;;;;;;5.88;2.38;;;;;;;16.54;72.81;101534.75;5024937;28;20029;-61
2023/08/18 00:14:15;;;;;;;1.75;1.38;;;;;;;16.51;73.20;101530.44;5024776;28;20046;-61
2023/08/18 00:16:40;;;;;;;2.58;1.92;;;;;;;16.53;73.08;101536.53;5023478;28;20029;-60
2023/08/18 00:19:06;;;;;;;2.58;1.60;;;;;;;16.52;73.48;101532.16;5024860;28;20103;-61
2023/08/18 00:21:32;;;;;;;3.22;1.80;;;;;;;16.52;73.63;101542.66;5024646;28;20026;-61
2023/08/18 00:23:57;;;;;;;4.07;2.17;;;;;;;16.49;74.06;101537.47;5024652;28;20034;-61
2023/08/18 00:26:23;;;;;;;1.52;1.42;;;;;;;16.50;74.46;101543.56;5023420;28;20041;-61
2023/08/18 00:28:48;;;;;;;2.58;1.80;;;;;;;16.46;74.70;101541.00;5024767;28;20030;-61
2023/08/18 00:31:13;;;;;;;2.60;1.70;;;;;;;16.43;75.03;101543.69;5024441;28;20113;-62
2023/08/18 00:33:39;;;;;;;7.50;2.30;;;;;;;16.45;75.22;101543.66;5024659;28;20046;-61
2023/08/18 00:36:05;;;;;;;2.70;1.60;;;;;;;16.44;75.27;101547.13;5024562;28;20056;-61
2023/08/18 00:38:30;;;;;;;8.07;2.05;;;;;;;16.45;75.54;101541.88;5024695;28;20029;-61
2023/08/18 00:40:56;;;;;;;3.45;1.73;;;;;;;16.44;75.46;101547.13;5024658;28;20018;-61
2023/08/18 00:43:22;;;;;;;4.40;2.35;;;;;;;16.43;75.37;101553.28;5024625;28;20025;-61
2023/08/18 00:45:49;;;;;;;3.50;1.83;;;;;;;16.44;75.35;101549.75;5028035;28;20026;-60
2023/08/18 00:48:16;;;;;;;2.00;1.75;;;;;;;16.43;75.73;101553.28;5028354;28;20049;-61
2023/08/18 00:50:42;;;;;;;9.25;2.28;;;;;;;16.45;75.48;101548.88;5028225;28;20033;-60
2023/08/18 00:53:08;;;;;;;3.90;1.80;;;;;;;16.42;75.59;101541.06;5028386;28;20037;-60
2023/08/18 00:55:33;;;;;;;5.40;2.30;;;;;;;16.43;75.83;101553.28;5028247;28;20382;-61
2023/08/18 00:58:02;;;;;;;6.75;1.65;;;;;;;16.43;76.00;101548.91;5028125;28;20100;-60
2023/08/18 01:00:27;;;;;;;3.50;1.95;;;;;;;16.44;76.19;101550.63;5028016;28;20018;-61
2023/08/18 01:02:53;;;;;;;2.80;1.90;;;;;;;16.44;76.07;101549.75;5028356;28;20053;-60
2023/08/18 01:05:19;;;;;;;6.35;1.73;;;;;;;16.46;76.35;101554.09;5027984;28;20489;-60
2023/08/18 01:07:45;;;;;;;2.67;2.08;;;;;;;16.49;76.14;101547.94;5028368;28;20036;-61
2023/08/18 01:10:11;;;;;;;2.15;1.73;;;;;;;16.44;76.66;101542.78;5028071;28;20026;-62
2023/08/18 01:12:51;;;;;;;3.10;2.08;;;;;;;16.45;76.49;101541.03;5028143;28;20052;-60
2023/08/18 01:15:44;;;;;;;3.08;1.70;;;;;;;16.47;76.13;101542.72;5027946;28;20026;-61
2023/08/18 01:18:11;;;;;;;4.32;1.73;;;;;;;16.47;76.51;101545.34;5026317;28;20030;-61
2023/08/18 01:20:37;;;;;;;5.93;2.25;;;;;;;16.45;76.53;101541.88;5027939;28;20342;-62
2023/08/18 01:23:04;;;;;;;2.85;1.95;;;;;;;16.42;77.13;101536.69;5028000;28;20377;-60
2023/08/18 01:25:30;;;;;;;2.63;1.58;;;;;;;16.47;77.72;101537.47;5028133;28;20030;-60
2023/08/18 01:27:58;;;;;;;2.40;1.85;;;;;;;16.44;77.72;101545.41;5027648;28;20033;-60
2023/08/18 01:30:46;;;;;;;3.42;2.03;;;;;;;16.47;77.70;101547.09;5027760;28;20025;-62
2023/08/18 01:33:20;;;;;;;1.88;1.50;;;;;;;16.43;77.76;101535.81;5027794;28;20029;-60
2023/08/18 01:35:48;;;;;;;1.60;1.42;;;;;;;16.43;77.94;101538.44;5027345;28;20022;-60
2023/08/18 01:38:15;;;;;;;6.30;2.20;;;;;;;16.44;77.56;101547.13;5027353;28;20030;-60
2023/08/18 01:40:42;;;;;;;1.85;1.65;;;;;;;16.40;78.04;101538.47;5027696;28;20029;-60
2023/08/18 01:43:08;;;;;;;2.00;1.38;;;;;;;16.40;78.02;101542.84;5027687;28;20089;-61
2023/08/18 01:45:34;;;;;;;3.08;1.75;;;;;;;16.40;78.17;101543.72;5027175;28;20029;-61
2023/08/18 01:48:00;;;;;;;3.40;1.90;;;;;;;16.40;78.25;101537.59;5027424;28;20034;-61
2023/08/18 01:50:25;;;;;;;3.53;1.58;;;;;;;16.38;78.09;101534.13;5027027;28;20129;-60
2023/08/18 01:52:51;;;;;;;4.22;1.77;;;;;;;16.40;78.76;101535.84;5027416;28;20064;-60
2023/08/18 01:55:16;;;;;;;4.30;2.42;;;;;;;16.40;78.78;101528.00;5026324;28;20029;-61
2023/08/18 01:57:42;;;;;;;3.13;2.20;;;;;;;16.34;78.93;101515.00;5026970;28;20033;-59
2023/08/18 02:00:07;;;;;;;2.83;2.17;;;;;;;16.35;78.85;101516.72;5027247;28;20030;-60
2023/08/18 02:02:34;;;;;;;2.33;1.55;;;;;;;16.33;79.17;101511.50;5027184;28;20076;-60
2023/08/18 02:05:00;;;;;;;3.97;1.90;;;;;;;16.35;79.39;101509.72;5026792;28;20089;-60
2023/08/18 02:07:25;;;;;;;3.38;1.35;;;;;;;16.31;79.29;101499.31;5027236;28;20028;-61
2023/08/18 02:09:50;;;;;;;1.88;1.63;;;;;;;16.35;79.40;101512.34;5027030;28;20055;-61
2023/08/18 02:12:16;;;;;;;2.15;1.33;;;;;;;16.38;79.41;101507.94;5025373;28;20029;-60
2023/08/18 02:14:41;;;;;;;1.58;1.10;;;;;;;16.38;79.24;101503.56;5025609;28;20022;-61
2023/08/18 02:17:07;;;;;;;3.97;2.03;;;;;;;16.36;79.58;101500.09;5026872;28;20362;-61
2023/08/18 02:19:32;;;;;;;3.13;1.70;;;;;;;16.38;79.53;101502.69;5026700;28;20041;-60
2023/08/18 02:21:57;;;;;;;2.38;1.52;;;;;;;16.38;79.59;101505.31;5026473;28;20029;-61
2023/08/18 02:24:23;;;;;;;6.00;1.98;;;;;;;16.38;79.60;101498.31;5026860;28;20026;-61
2023/08/18 02:26:48;;;;;;;2.22;1.40;;;;;;;16.35;79.63;101499.25;5026603;28;20450;-61
2023/08/18 02:29:14;;;;;;;2.15;1.80;;;;;;;16.35;79.83;101494.00;5025560;28;20037;-61
2023/08/18 02:31:39;;;;;;;3.00;1.30;;;;;;;16.38;79.81;101497.44;5026333;28;20022;-61
2023/08/18 02:34:05;;;;;;;2.20;1.70;;;;;;;16.40;80.04;101495.66;5026487;28;20021;-61
2023/08/18 02:36:30;;;;;;;1.85;1.60;;;;;;;16.43;79.88;101495.63;5026267;28;20021;-61
2023/08/18 02:38:55;;;;;;;2.78;1.35;;;;;;;16.44;80.20;101502.59;5041640;28;20040;-61
2023/08/18 02:41:23;;;;;;;1.65;1.45;;;;;;;16.43;79.86;101493.88;5041669;28;20033;-61
2023/08/18 02:43:48;;;;;;;3.80;2.45;;;;;;;16.48;80.29;101510.38;5026622;28;20041;-60
2023/08/18 02:46:14;;;;;;;6.22;2.22;;;;;;;16.49;80.20;101498.16;5026478;28;20018;-61
2023/08/18 02:48:39;;;;;;;3.85;1.75;;;;;;;16.60;79.70;101503.22;5026375;28;20021;-61
2023/08/18 02:51:07;;;;;;;3.47;1.63;;;;;;;16.58;80.06;101498.00;5025761;28;20108;-61
2023/08/18 02:53:33;;;;;;;4.13;1.48;;;;;;;16.62;79.92;101497.94;5026074;28;20030;-60
2023/08/18 02:55:59;;;;;;;2.20;1.65;;;;;;;16.63;80.05;101497.06;5026127;28;20029;-61
2023/08/18 02:58:26;;;;;;;5.25;1.55;;;;;;;16.63;79.98;101507.56;5026271;28;20037;-61
2023/08/18 03:00:52;;;;;;;4.00;2.20;;;;;;;16.63;79.72;101504.94;5026361;28;20034;-61
2023/08/18 03:03:17;;;;;;;1.40;0.90;;;;;;;16.65;79.74;101504.00;5025998;28;20068;-61
2023/08/18 03:05:43;;;;;;;1.85;1.60;;;;;;;16.58;80.13;101499.78;5025836;28;20145;-61
2023/08/18 03:08:10;;;;;;;4.97;1.75;;;;;;;16.60;80.08;101504.09;5025202;28;20029;-60
2023/08/18 03:10:36;;;;;;;1.35;1.20;;;;;;;16.62;80.22;101511.03;5025533;28;20026;-61
2023/08/18 03:13:03;;;;;;;1.75;1.23;;;;;;;16.65;80.01;101511.00;5041127;28;20113;-61
2023/08/18 03:15:29;;;;;;;1.20;1.10;;;;;;;16.65;79.82;101505.75;5025683;28;20032;-61
2023/08/18 03:17:54;;;;;;;2.30;1.67;;;;;;;16.64;79.51;101499.66;5025547;28;20101;-61
2023/08/18 03:20:21;;;;;;;3.30;1.45;;;;;;;16.68;79.47;101503.09;5025565;28;20018;-61
2023/08/18 03:22:46;;;;;;;2.25;1.35;;;;;;;16.65;79.65;101500.50;5025489;28;20226;-60
2023/08/18 03:25:12;;;;;;;7.82;1.75;;;;;;;16.69;79.58;101507.47;5025696;28;20112;-61
2023/08/18 03:27:37;;;;;;;2.13;1.60;;;;;;;16.69;79.85;101502.22;5025633;28;20065;-61
2023/08/18 03:30:04;;;;;;;2.05;1.48;;;;;;;16.68;79.47;101514.44;5025415;28;20118;-60
2023/08/18 03:32:29;;;;;;;3.20;1.52;;;;;;;16.66;79.35;101510.97;5025510;28;20018;-61
2023/08/18 03:34:55;;;;;;;3.92;1.63;;;;;;;16.67;79.69;101514.47;5025374;28;20030;-60
2023/08/18 03:37:20;;;;;;;2.10;1.80;;;;;;;16.64;79.40;101506.66;5025496;28;20026;-61
2023/08/18 03:39:46;;;;;;;2.00;1.80;;;;;;;16.59;79.51;101507.59;5025492;28;20105;-60
2023/08/18 03:42:11;;;;;;;4.30;1.55;;;;;;;16.56;79.30;101515.53;5025245;28;20081;-61
2023/08/18 03:44:37;;;;;;;1.30;1.20;;;;;;;16.52;79.71;101508.56;5025394;28;20029;-61
2023/08/18 03:47:02;;;;;;;2.20;1.45;;;;;;;16.52;79.81;101508.56;5025248;28;20026;-60
2023/08/18 03:49:28;;;;;;;1.77;1.38;;;;;;;16.51;79.48;101511.22;5024955;28;20068;-60
2023/08/18 03:51:53;;;;;;;2.13;1.13;;;;;;;16.45;79.65;101499.94;5024990;28;20026;-60
2023/08/18 03:54:19;;;;;;;1.73;1.23;;;;;;;16.46;79.57;101509.56;5025092;28;20033;-61
2023/08/18 03:56:44;;;;;;;2.55;1.65;;;;;;;16.47;79.63;101507.78;5025408;28;20022;-61
2023/08/18 03:59:10;;;;;;;1.60;0.98;;;;;;;16.45;79.74;101513.03;5025155;28;20017;-61
2023/08/18 04:01:35;;;;;;;2.65;1.60;;;;;;;16.48;79.73;101509.53;5024856;28;20358;-61
2023/08/18 04:04:00;;;;;;;3.63;1.73;;;;;;;16.46;79.72;101519.16;5024637;28;20049;-61
2023/08/18 04:06:26;;;;;;;4.95;1.50;;;;;;;16.46;79.65;101503.44;5024650;28;20057;-62
2023/08/18 04:09:06;;;;;;;1.60;1.13;;;;;;;16.44;79.82;101500.84;5025381;28;20045;-61
2023/08/18 04:11:32;;;;;;;1.95;1.35;;;;;;;16.49;79.92;101500.75;5025144;28;20101;-60
2023/08/18 04:13:57;;;;;;;2.42;1.40;;;;;;;16.46;79.96;101500.81;5024905;28;20038;-61
2023/08/18 04:16:23;;;;;;;4.80;1.55;;;;;;;16.48;79.86;101506.91;5025172;28;20025;-61
2023/08/18 04:18:48;;;;;;;3.83;1.10;;;;;;;16.51;79.87;101504.25;5024034;28;20026;-60
2023/08/18 04:21:14;;;;;;;4.53;1.58;;;;;;;16.51;79.87;101501.63;5024550;28;20037;-61
2023/08/18 04:23:39;;;;;;;2.05;1.40;;;;;;;16.50;79.96;101499.91;5024824;28;20049;-61
2023/08/18 04:26:04;;;;;;;1.42;0.98;;;;;;;16.53;79.64;101496.34;5024654;28;20060;-60
2023/08/18 04:28:30;;;;;;;1.35;1.20;;;;;;;16.52;79.98;101492.84;5024478;28;20393;-61
2023/08/18 04:30:55;;;;;;;2.05;1.50;;;;;;;16.53;79.42;101502.47;5024813;28;20041;-61
2023/08/18 04:33:20;;;;;;;1.88;1.23;;;;;;;16.52;79.83;101500.72;5024587;28;20022;-60
2023/08/18 04:35:46;;;;;;;1.98;1.58;;;;;;;16.54;79.80;101506.81;5024589;28;20200;-61
2023/08/18 04:38:13;;;;;;;4.38;1.58;;;;;;;16.56;79.57;101506.78;5024969;28;20044;-61
2023/08/18 04:40:39;;;;;;;0.98;0.88;;;;;;;16.58;79.71;101505.84;5024775;28;20477;-61
2023/08/18 04:43:04;;;;;;;4.90;1.63;;;;;;;16.60;79.50;101503.22;5024670;28;20055;-61
2023/08/18 04:45:30;;;;;;;1.27;1.10;;;;;;;16.60;79.48;101503.22;5024765;28;20038;-60
2023/08/18 04:47:56;;;;;;;9.25;2.10;;;;;;;16.58;79.24;101505.00;5024565;28;20466;-61
2023/08/18 04:50:21;;;;;;;1.23;1.13;;;;;;;16.52;79.45;101503.34;5024428;28;20478;-62
2023/08/18 04:52:47;;;;;;;1.90;1.55;;;;;;;16.40;79.50;101500.91;5024563;28;20101;-62
2023/08/18 04:55:12;;;;;;;3.03;1.63;;;;;;;16.36;79.59;101513.19;5024533;28;20045;-62
2023/08/18 04:57:37;;;;;;;1.40;1.20;;;;;;;16.30;79.54;101508.91;5024307;28;20128;-61
2023/08/18 05:00:05;;;;;;;4.82;1.63;;;;;;;16.28;79.75;101501.97;5024711;28;20105;-61
2023/08/18 05:02:30;;;;;;;2.67;1.58;;;;;;;16.25;80.00;101510.72;5024176;28;20026;-61
2023/08/18 05:04:56;;;;;;;2.67;1.70;;;;;;;16.24;79.90;101498.53;5024332;28;20028;-60
2023/08/18 05:07:22;;;;;;;1.50;1.40;;;;;;;16.24;80.17;101498.53;5024326;28;20092;-61
2023/08/18 05:09:47;;;;;;;1.85;1.40;;;;;;;16.24;80.24;101498.53;5024243;28;20037;-61
2023/08/18 05:12:13;;;;;;;1.80;1.48;;;;;;;16.23;79.91;101502.91;5024563;28;20029;-61
2023/08/18 05:14:38;;;;;;;1.98;1.52;;;;;;;16.23;80.39;101499.41;5024117;28;20051;-62
2023/08/18 05:17:03;;;;;;;1.83;1.33;;;;;;;16.28;80.14;101496.75;5024439;28;20026;-61
2023/08/18 05:19:29;;;;;;;5.55;2.13;;;;;;;16.29;80.50;101498.47;5024248;28;20026;-61
2023/08/18 05:21:55;;;;;;;6.70;2.08;;;;;;;16.33;80.24;101495.78;5024024;28;20029;-61
2023/08/18 05:24:20;;;;;;;1.40;1.17;;;;;;;16.38;80.40;101497.44;5024090;28;20030;-62
2023/08/18 05:26:46;;;;;;;2.25;1.45;;;;;;;16.37;80.22;101491.34;5024265;28;20030;-61
2023/08/18 05:29:11;;;;;;;1.60;1.15;;;;;;;16.36;80.36;101494.84;5024322;28;20030;-61
2023/08/18 05:31:37;;;;;;;1.80;1.17;;;;;;;16.35;80.50;101485.25;5027048;28;20049;-62
2023/08/18 05:34:03;;;;;;;3.58;1.70;;;;;;;16.32;80.77;101486.19;5028122;28;20022;-62
2023/08/18 05:36:30;;;;;;;1.67;1.27;;;;;;;16.32;80.83;101494.03;5027456;28;20025;-63
2023/08/18 05:38:56;;;;;;;1.95;1.40;;;;;;;16.30;81.02;101480.09;5027626;28;20034;-62
2023/08/18 05:41:21;;;;;;;1.63;1.35;;;;;;;16.31;80.78;101480.97;5027513;28;20078;-62
2023/08/18 05:43:46;;;;;;;2.25;1.48;;;;;;;16.30;80.94;101477.47;5027542;28;20105;-62
2023/08/18 05:46:12;;;;;;;2.78;1.65;;;;;;;16.29;81.31;101477.50;5027715;28;20033;-61
2023/08/18 05:48:37;;;;;;;2.60;1.40;;;;;;;16.28;81.45;101475.78;5027356;28;20033;-61
2023/08/18 05:51:04;;;;;;;2.50;1.63;;;;;;;16.31;81.51;101476.56;5027046;28;20033;-62
2023/08/18 05:53:32;;;;;;;4.40;2.20;;;;;;;16.31;81.81;101470.50;5027212;28;20024;-61
2023/08/18 05:55:58;;;;;;;2.35;1.77;;;;;;;16.34;81.77;101476.53;5027208;28;20076;-61
2023/08/18 05:58:23;;;;;;;1.88;1.23;;;;;;;16.40;81.52;101485.19;5027270;28;20033;-61
2023/08/18 06:00:49;;;;;;;2.22;1.95;;;;;;;16.43;81.59;101486.00;5027082;28;20548;-61
2023/08/18 06:03:17;;;;;;;2.90;2.00;;;;;;;16.49;81.80;101485.03;5027073;28;20094;-60
2023/08/18 06:05:43;;;;;;;1.33;1.15;;;;;;;16.53;81.71;101497.22;5027252;28;20025;-61
2023/08/18 06:08:09;;;;;;;3.58;2.08;;;;;;;16.57;81.93;101491.03;5027283;28;20125;-61
2023/08/18 06:10:34;;;;;;;2.88;1.52;;;;;;;16.59;81.76;101491.88;5026956;28;20057;-60
2023/08/18 06:13:00;;;;;;;3.63;1.60;;;;;;;16.62;81.52;101493.56;5026586;28;20092;-60
2023/08/18 06:15:25;;;;;;;2.28;1.55;;;;;;;16.63;81.47;101497.91;5026826;28;20025;-61
2023/08/18 06:17:50;;;;;;;5.38;1.90;;;;;;;16.66;81.78;101505.72;5026660;28;20032;-61
2023/08/18 06:20:16;;;;;;;1.73;1.50;;;;;;;16.68;81.69;101505.69;5026809;28;20029;-60
2023/08/18 06:22:42;;;;;;;3.78;1.95;;;;;;;16.64;81.57;101499.66;5027009;28;20036;-61
2023/08/18 06:25:09;;;;;;;1.63;1.20;;;;;;;16.67;81.58;101504.84;5026638;28;20026;-61
2023/08/18 06:27:34;;;;;;;4.65;1.50;;;;;;;16.68;81.68;101496.09;5026761;28;20560;-61
2023/08/18 06:30:00;;;;;;;4.22;1.35;;;;;;;16.64;81.36;101497.03;5026744;28;20022;-62
2023/08/18 06:32:25;;;;;;;1.40;1.20;;;;;;;16.70;81.44;101498.69;5026660;28;20081;-61
2023/08/18 06:34:52;;;;;;;3.72;1.83;;;;;;;16.76;81.33;101497.75;5026598;28;20021;-61
2023/08/18 06:37:18;;;;;;;3.97;1.55;;;;;;;16.77;81.63;101496.84;5026732;28;20057;-61
2023/08/18 06:39:43;;;;;;;2.88;1.88;;;;;;;16.85;81.36;101494.94;5026583;28;20026;-62
2023/08/18 06:42:09;;;;;;;5.45;1.83;;;;;;;16.90;81.15;101497.50;5025717;28;20025;-61
2023/08/18 06:44:34;;;;;;;5.18;1.05;;;;;;;16.95;80.98;101496.50;5026456;28;20037;-61
2023/08/18 06:47:00;;;;;;;4.43;1.45;;;;;;;16.95;81.12;101493.00;5026478;28;20017;-61
2023/08/18 06:49:26;;;;;;;4.65;2.00;;;;;;;16.93;80.75;101490.41;5026130;28;20032;-60
2023/08/18 06:51:51;;;;;;;1.63;1.25;;;;;;;16.95;80.93;101493.88;5026158;28;20025;-61
2023/08/18 06:54:17;;;;;;;1.98;1.20;;;;;;;16.95;81.07;101490.38;5026368;28;20018;-61
2023/08/18 06:56:43;;;;;;;2.00;1.27;;;;;;;16.94;80.80;101486.03;5026114;28;20113;-61
2023/08/18 06:59:09;;;;;;;2.22;1.48;;;;;;;16.98;81.17;101491.22;5025875;28;20041;-61
2023/08/18 07:01:34;;;;;;;3.30;1.83;;;;;;;17.01;80.85;101486.81;5026200;28;20025;-60
2023/08/18 07:03:59;;;;;;;1.40;1.30;;;;;;;17.03;80.75;101482.41;5025983;28;20030;-61
2023/08/18 07:06:25;;;;;;;1.58;1.10;;;;;;;17.03;80.91;101485.03;5025966;28;20022;-62
2023/08/18 07:08:50;;;;;;;1.90;1.30;;;;;;;17.04;80.25;101489.38;5024497;28;20026;-61
2023/08/18 07:11:16;;;;;;;1.67;1.25;;;;;;;17.03;80.08;101488.50;5025991;28;20053;-61
2023/08/18 07:13:42;;;;;;;1.95;1.75;;;;;;;17.04;80.34;101490.25;5025702;28;20067;-62
2023/08/18 07:16:08;;;;;;;3.05;1.42;;;;;;;16.99;80.35;101484.22;5025602;28;20024;-62
2023/08/18 07:18:33;;;;;;;1.95;1.35;;;;;;;17.01;80.07;101487.69;5025595;28;20030;-61
2023/08/18 07:20:59;;;;;;;1.40;1.27;;;;;;;17.19;80.06;101506.59;5025373;28;20072;-62
2023/08/18 07:23:25;;;;;;;1.23;1.13;;;;;;;17.27;80.12;101503.88;5025747;28;20022;-61
2023/08/18 07:25:50;;;;;;;1.80;1.08;;;;;;;17.33;79.91;101498.50;5025526;28;20485;-60
2023/08/18 07:28:16;;;;;;;2.75;1.52;;;;;;;17.38;79.74;101503.66;5025363;28;20413;-61
2023/08/18 07:30:41;;;;;;;1.63;1.13;;;;;;;17.45;79.84;101503.50;5025632;28;20028;-62
2023/08/18 07:33:07;;;;;;;1.92;1.38;;;;;;;17.49;79.69;101511.31;5025385;28;20022;-61
2023/08/18 07:35:32;;;;;;;4.88;1.13;;;;;;;17.49;78.85;101512.19;5025227;28;20111;-60
2023/08/18 07:37:58;;;;;;;2.45;1.50;;;;;;;17.57;79.36;101518.13;5025597;28;20026;-60
2023/08/18 07:40:23;;;;;;;1.23;0.95;;;;;;;17.66;79.12;101516.22;5025615;28;20505;-60
2023/08/18 07:42:49;;;;;;;4.40;1.30;;;;;;;17.76;78.88;101515.16;5025243;28;20101;-61
2023/08/18 07:45:14;;;;;;;1.85;1.20;;;;;;;17.75;78.71;101523.91;5025260;28;20057;-60
2023/08/18 07:47:42;;;;;;;3.85;1.15;;;;;;;17.79;78.49;101517.72;5025240;28;20029;-61
2023/08/18 07:50:11;;;;;;;1.92;1.35;;;;;;;17.83;77.96;101524.59;5025396;28;20026;-61
2023/08/18 07:52:37;;;;;;;2.00;1.30;;;;;;;17.84;77.19;101513.19;5025183;28;20326;-61
2023/08/18 07:55:04;;;;;;;1.88;1.48;;;;;;;17.89;77.15;101507.84;5025047;28;20026;-60
2023/08/18 07:57:30;;;;;;;1.92;1.30;;;;;;;17.99;77.48;101502.41;5025129;28;20076;-61
2023/08/18 07:59:56;;;;;;;1.40;1.10;;;;;;;18.14;77.99;101504.72;5025224;28;20077;-61
2023/08/18 08:02:22;;;;;;;3.55;1.45;;;;;;;18.26;77.53;101507.97;5024955;28;20045;-62
2023/08/18 08:04:47;;;;;;;2.88;1.35;;;;;;;18.32;76.96;101506.03;5024669;28;20026;-61
2023/08/18 08:07:12;;;;;;;2.03;1.38;;;;;;;18.37;77.27;101499.84;5023632;28;20065;-61
2023/08/18 08:09:39;;;;;;;4.57;1.38;;;;;;;18.56;77.08;101511.63;5024810;28;20022;-61
2023/08/18 08:12:04;;;;;;;2.40;1.30;;;;;;;18.66;76.42;101514.00;5024819;28;20029;-61
2023/08/18 08:14:30;;;;;;;2.53;1.35;;;;;;;18.71;76.75;101506.88;5024737;28;20115;-61
2023/08/18 08:16:55;;;;;;;3.05;1.50;;;;;;;18.77;76.59;101517.25;5024983;28;20028;-61
2023/08/18 08:19:21;;;;;;;1.85;1.33;;;;;;;18.85;76.19;101510.94;5025079;28;20018;-61
2023/08/18 08:21:47;;;;;;;2.42;1.40;;;;;;;18.93;74.39;101514.25;5024522;28;20249;-61
2023/08/18 08:24:12;;;;;;;3.88;1.60;;;;;;;18.93;74.72;101517.72;5024683;28;20022;-61
2023/08/18 08:26:37;;;;;;;2.92;1.35;;;;;;;19.02;74.97;101511.38;5024350;28;20026;-61
2023/08/18 08:29:03;;;;;;;1.48;1.15;;;;;;;19.05;73.93;101519.19;5024503;28;20038;-61
2023/08/18 08:31:28;;;;;;;1.35;1.15;;;;;;;19.05;73.64;101516.56;5024464;28;20022;-61
2023/08/18 08:33:54;;;;;;;5.72;2.13;;;;;;;19.10;74.03;101513.81;5024703;28;20045;-61
2023/08/18 08:36:19;;;;;;;4.03;1.35;;;;;;;19.18;74.07;101516.25;5024313;28;20045;-61
2023/08/18 08:38:45;;;;;;;1.52;1.23;;;;;;;19.22;74.51;101523.16;5024514;28;20117;-61
2023/08/18 08:41:10;;;;;;;1.60;1.48;;;;;;;19.28;74.06;101527.41;5024731;28;20033;-60
2023/08/18 08:43:36;;;;;;;1.58;1.15;;;;;;;19.29;74.38;101532.63;5024779;28;20028;-60
2023/08/18 08:46:01;;;;;;;1.60;1.30;;;;;;;19.38;74.06;101527.97;5024692;28;20026;-61
2023/08/18 08:48:34;;;;;;;1.60;1.35;;;;;;;19.51;73.69;101536.41;5024690;28;20105;-61
2023/08/18 08:51:04;;;;;;;2.10;1.45;;;;;;;19.66;73.55;101529.84;5024340;28;20026;-61
2023/08/18 08:53:38;;;;;;;1.98;1.63;;;;;;;19.75;72.66;101526.94;5024297;28;20022;-61
2023/08/18 08:56:07;;;;;;;1.83;1.42;;;;;;;19.85;72.57;101537.22;5024531;28;20074;-61
2023/08/18 08:58:33;;;;;;;2.08;1.73;;;;;;;20.12;72.82;101526.78;5024473;28;20397;-60
2023/08/18 09:01:02;;;;;;;1.55;1.33;;;;;;;20.39;72.26;101526.81;5024508;28;20022;-61
2023/08/18 09:03:28;;;;;;;1.95;1.45;;;;;;;20.54;69.79;101528.97;5024575;28;20028;-61
2023/08/18 09:05:57;;;;;;;2.75;1.58;;;;;;;20.56;69.82;101515.72;5026459;28;20053;-61
2023/08/18 09:08:23;;;;;;;1.90;1.35;;;;;;;20.74;68.98;101529.22;5028144;28;20106;-61
2023/08/18 09:10:48;;;;;;;2.08;0.98;;;;;;;20.86;67.75;101530.59;5028008;28;20050;-61
2023/08/18 09:13:14;;;;;;;0.90;0.82;;;;;;;20.98;66.00;101530.19;5028013;28;20048;-61
2023/08/18 09:15:47;;;;;;;2.13;1.27;;;;;;;20.95;65.02;101525.03;5028174;28;20052;-61
2023/08/18 09:18:12;;;;;;;1.95;1.38;;;;;;;20.91;65.65;101528.66;5028198;28;20017;-61
2023/08/18 09:20:38;;;;;;;2.00;1.10;;;;;;;20.81;65.37;101528.94;5027513;28;20025;-61
2023/08/18 09:23:04;;;;;;;2.83;1.20;;;;;;;20.66;64.99;101532.09;5027791;28;20097;-61
2023/08/18 09:25:38;;;;;;;1.05;0.95;;;;;;;20.50;65.58;101519.44;5027540;28;20038;-60
2023/08/18 09:28:04;;;;;;;1.48;1.20;;;;;;;20.39;65.48;101521.56;5027782;28;20033;-61
2023/08/18 09:30:33;;;;;;;2.95;1.48;;;;;;;20.29;66.35;101518.34;5027644;28;20386;-61
2023/08/18 09:33:02;;;;;;;1.42;1.20;;;;;;;20.23;66.44;101521.16;5027894;28;20032;-61
2023/08/18 09:35:34;;;;;;;1.13;1.02;;;;;;;20.11;66.09;101520.63;5027585;28;20052;-61
2023/08/18 09:38:01;;;;;;;3.17;1.70;;;;;;;19.97;66.94;101509.66;5027728;28;20113;-60
2023/08/18 09:40:27;;;;;;;1.88;1.35;;;;;;;19.87;66.92;101509.06;5027807;28;20106;-61
2023/08/18 09:42:53;;;;;;;2.60;1.95;;;;;;;19.75;66.95;101516.41;5027258;28;20029;-61
2023/08/18 09:45:23;;;;;;;2.42;1.35;;;;;;;19.65;67.03;101510.53;5027372;28;20073;-60
2023/08/18 09:47:54;;;;;;;1.48;1.25;;;;;;;19.65;67.12;101515.81;5027559;28;20030;-61
2023/08/18 09:50:21;;;;;;;1.20;1.10;;;;;;;19.50;67.28;101490.81;5027444;28;20481;-60
2023/08/18 09:52:51;;;;;;;1.45;1.05;;;;;;;19.57;67.25;101505.50;5027535;28;20022;-61
2023/08/18 09:55:19;;;;;;;1.17;0.98;;;;;;;19.66;67.46;101503.53;5027628;28;20082;-62
2023/08/18 09:58:08;;;;;;;1.20;1.10;;;;;;;19.77;67.07;101509.34;5027407;28;20500;-61
2023/08/18 10:00:38;;;;;;;1.17;0.90;;;;;;;19.77;66.00;101498.81;5021559;28;20324;-61
2023/08/18 10:03:05;;;;;;;0.98;0.95;;;;;;;19.68;65.92;101493.81;5027068;28;20052;-61
2023/08/18 10:05:31;;;;;;;1.40;0.98;;;;;;;19.66;66.20;101490.34;5026819;28;20037;-60
2023/08/18 10:07:57;;;;;;;1.80;1.67;;;;;;;19.68;66.23;101493.81;5042233;28;20022;-61
2023/08/18 10:10:24;;;;;;;1.00;0.90;;;;;;;19.76;66.21;101491.78;5027164;28;20030;-62
2023/08/18 10:12:51;;;;;;;1.85;1.00;;;;;;;19.83;65.34;101487.19;5026675;28;20057;-62
2023/08/18 10:15:17;;;;;;;2.35;1.23;;;;;;;19.86;65.20;101491.50;5026833;28;20030;-61
2023/08/18 10:17:43;;;;;;;1.58;1.02;;;;;;;19.87;64.82;101488.81;5025688;28;20026;-61
2023/08/18 10:20:12;;;;;;;1.60;1.23;;;;;;;19.79;64.91;101491.69;5026712;28;20489;-61
2023/08/18 10:22:37;;;;;;;1.13;0.98;;;;;;;19.75;65.35;101494.47;5027123;28;20018;-62
2023/08/18 10:25:05;;;;;;;3.15;1.10;;;;;;;19.74;65.51;101498.03;5026468;28;20446;-62
2023/08/18 10:27:30;;;;;;;1.35;0.98;;;;;;;19.68;65.68;101496.44;5026992;28;20026;-61
2023/08/18 10:30:24;;;;;;;2.08;1.13;;;;;;;19.60;65.66;101480.84;5026406;28;20362;-61
2023/08/18 10:32:51;;;;;;;1.42;0.90;;;;;;;19.51;65.77;101484.63;5026657;28;20022;-60
2023/08/18 10:35:22;;;;;;;1.40;1.17;;;;;;;19.46;66.12;101489.16;5026412;28;20150;-61
2023/08/18 10:37:50;;;;;;;3.13;1.30;;;;;;;19.46;66.74;101478.59;5026783;28;20040;-61
2023/08/18 10:40:23;;;;;;;1.05;0.85;;;;;;;19.42;66.89;101472.59;5026417;28;20026;-60
2023/08/18 10:42:50;;;;;;;0.73;0.73;;;;;;;19.49;66.85;101481.16;5026765;28;20109;-61
2023/08/18 10:45:27;;;;;;;1.85;1.13;;;;;;;19.43;66.90;101479.56;5026262;28;20018;-61
2023/08/18 10:47:54;;;;;;;1.50;1.40;;;;;;;19.35;67.19;101484.19;5026537;28;20033;-61
2023/08/18 10:50:19;;;;;;;1.35;1.20;;;;;;;19.32;67.01;101484.28;5026335;28;20022;-60
2023/08/18 10:52:45;;;;;;;2.67;1.23;;;;;;;19.28;67.69;101485.28;5026098;28;20026;-60
2023/08/18 10:55:11;;;;;;;1.63;1.20;;;;;;;19.25;67.70;101488.00;5026096;28;20018;-61
2023/08/18 10:57:37;;;;;;;2.95;1.13;;;;;;;19.19;67.78;101502.19;5026124;28;20032;-61
2023/08/18 11:00:10;;;;;;;1.70;1.20;;;;;;;19.14;68.03;101491.78;5026303;28;20158;-61
2023/08/18 11:02:36;;;;;;;1.88;1.52;;;;;;;19.07;67.89;101488.41;5025887;28;20026;-61
2023/08/18 11:05:02;;;;;;;1.42;0.98;;;;;;;19.06;68.50;101491.94;5025369;28;20018;-60
2023/08/18 11:07:30;;;;;;;2.58;1.60;;;;;;;19.08;68.47;101484.00;5025633;28;20021;-62
2023/08/18 11:09:55;;;;;;;2.60;1.65;;;;;;;19.05;68.29;101474.44;5025734;28;20049;-62
2023/08/18 11:12:20;;;;;;;1.48;1.27;;;;;;;19.10;68.36;101481.38;5026007;28;20053;-61
2023/08/18 11:14:46;;;;;;;1.10;1.00;;;;;;;19.08;69.00;101477.00;5025665;28;20029;-61
2023/08/18 11:17:11;;;;;;;1.30;1.00;;;;;;;19.11;68.75;101483.97;5025840;28;20028;-61
2023/08/18 11:19:37;;;;;;;1.95;1.30;;;;;;;19.08;69.12;101479.63;5025714;28;20021;-61
2023/08/18 11:22:02;;;;;;;1.10;1.00;;;;;;;18.98;69.05;101475.50;5025532;28;20025;-62